sensor_id;sensor_type;location;lat;lon;timestamp;P1;durP1;ratioP1;P2;durP2;ratioP2
57113;SDS011;42994;51.606;9.988;2022-09-12T00:00:17;12.02;;;7.40;;
57113;SDS011;42994;51.606;9.988;2022-09-12T00:02:46;8.15;;;6.30;;
57113;SDS011;42994;51.606;9.988;2022-09-12T00:05:12;10.50;;;6.90;;
57113;SDS011;42994;51.606;9.988;2022-09-12T00:07:39;9.35;;;6.50;;
57113;SDS011;42994;51.606;9.988;2022-09-12T00:10:06;8.35;;;5.80;;
57113;SDS011;42994;51.606;9.988;2022-09-12T00:12:33;6.75;;;6.03;;
57113;SDS011;42994;51.606;9.988;2022-09-12T00:14:59;7.70;;;6.57;;
57113;SDS011;42994;51.606;9.988;2022-09-12T00:17:26;8.95;;;7.10;;
57113;SDS011;42994;51.606;9.988;2022-09-12T00:19:54;7.55;;;6.18;;
57113;SDS011;42994;51.606;9.988;2022-09-12T00:22:21;6.32;;;5.68;;
57113;SDS011;42994;51.606;9.988;2022-09-12T00:24:47;7.47;;;5.85;;
57113;SDS011;42994;51.606;9.988;2022-09-12T00:27:14;6.63;;;5.82;;
57113;SDS011;42994;51.606;9.988;2022-09-12T00:29:40;8.32;;;5.97;;
57113;SDS011;42994;51.606;9.988;2022-09-12T00:32:07;11.18;;;8.70;;
57113;SDS011;42994;51.606;9.988;2022-09-12T00:34:34;12.50;;;9.38;;
57113;SDS011;42994;51.606;9.988;2022-09-12T00:37:02;13.48;;;8.15;;
57113;SDS011;42994;51.606;9.988;2022-09-12T00:39:29;12.63;;;8.88;;
57113;SDS011;42994;51.606;9.988;2022-09-12T00:41:56;12.02;;;8.55;;
57113;SDS011;42994;51.606;9.988;2022-09-12T00:44:46;11.23;;;8.65;;
57113;SDS011;42994;51.606;9.988;2022-09-12T00:47:22;13.45;;;10.05;;
57113;SDS011;42994;51.606;9.988;2022-09-12T00:49:51;12.75;;;9.15;;
57113;SDS011;42994;51.606;9.988;2022-09-12T00:52:24;14.00;;;9.30;;
57113;SDS011;42994;51.606;9.988;2022-09-12T00:54:55;15.15;;;10.63;;
57113;SDS011;42994;51.606;9.988;2022-09-12T00:57:27;13.40;;;9.48;;
57113;SDS011;42994;51.606;9.988;2022-09-12T00:59:58;15.02;;;9.50;;
57113;SDS011;42994;51.606;9.988;2022-09-12T01:02:33;13.93;;;10.07;;
57113;SDS011;42994;51.606;9.988;2022-09-12T01:05:00;21.25;;;10.70;;
57113;SDS011;42994;51.606;9.988;2022-09-12T01:07:28;15.68;;;9.77;;
57113;SDS011;42994;51.606;9.988;2022-09-12T01:09:55;12.52;;;9.13;;
57113;SDS011;42994;51.606;9.988;2022-09-12T01:12:22;12.27;;;8.73;;
57113;SDS011;42994;51.606;9.988;2022-09-12T01:14:49;9.57;;;7.30;;
57113;SDS011;42994;51.606;9.988;2022-09-12T01:17:16;10.65;;;7.53;;
57113;SDS011;42994;51.606;9.988;2022-09-12T01:19:48;9.10;;;7.05;;
57113;SDS011;42994;51.606;9.988;2022-09-12T01:22:46;11.68;;;7.95;;
57113;SDS011;42994;51.606;9.988;2022-09-12T01:25:41;11.90;;;8.25;;
57113;SDS011;42994;51.606;9.988;2022-09-12T01:31:27;10.70;;;8.10;;
57113;SDS011;42994;51.606;9.988;2022-09-12T01:34:01;15.05;;;10.25;;
57113;SDS011;42994;51.606;9.988;2022-09-12T01:36:40;15.57;;;10.68;;
57113;SDS011;42994;51.606;9.988;2022-09-12T01:39:16;12.68;;;9.32;;
57113;SDS011;42994;51.606;9.988;2022-09-12T01:41:53;14.40;;;9.95;;
57113;SDS011;42994;51.606;9.988;2022-09-12T01:44:30;15.75;;;9.65;;
57113;SDS011;42994;51.606;9.988;2022-09-12T01:47:05;13.02;;;9.07;;
57113;SDS011;42994;51.606;9.988;2022-09-12T01:49:37;16.00;;;9.52;;
57113;SDS011;42994;51.606;9.988;2022-09-12T01:52:11;15.35;;;9.93;;
57113;SDS011;42994;51.606;9.988;2022-09-12T01:54:44;17.23;;;10.73;;
57113;SDS011;42994;51.606;9.988;2022-09-12T01:59:46;170.20;;;17.45;;
57113;SDS011;42994;51.606;9.988;2022-09-12T02:02:20;57.05;;;11.35;;
57113;SDS011;42994;51.606;9.988;2022-09-12T02:04:52;16.15;;;10.45;;
57113;SDS011;42994;51.606;9.988;2022-09-12T02:07:25;101.75;;;13.63;;
57113;SDS011;42994;51.606;9.988;2022-09-12T02:09:58;14.40;;;9.38;;
57113;SDS011;42994;51.606;9.988;2022-09-12T02:12:33;12.55;;;9.45;;
57113;SDS011;42994;51.606;9.988;2022-09-12T02:15:06;10.18;;;7.93;;
57113;SDS011;42994;51.606;9.988;2022-09-12T02:17:37;10.20;;;7.82;;
57113;SDS011;42994;51.606;9.988;2022-09-12T02:20:09;10.23;;;8.07;;
57113;SDS011;42994;51.606;9.988;2022-09-12T02:22:40;8.85;;;7.47;;
57113;SDS011;42994;51.606;9.988;2022-09-12T02:25:09;8.07;;;6.93;;
57113;SDS011;42994;51.606;9.988;2022-09-12T02:27:40;7.70;;;6.90;;
57113;SDS011;42994;51.606;9.988;2022-09-12T02:30:10;7.53;;;6.63;;
57113;SDS011;42994;51.606;9.988;2022-09-12T02:32:42;7.38;;;6.68;;
57113;SDS011;42994;51.606;9.988;2022-09-12T02:35:16;20.80;;;7.75;;
57113;SDS011;42994;51.606;9.988;2022-09-12T02:37:53;8.07;;;6.93;;
57113;SDS011;42994;51.606;9.988;2022-09-12T02:40:26;9.20;;;6.85;;
57113;SDS011;42994;51.606;9.988;2022-09-12T02:42:53;10.88;;;7.15;;
57113;SDS011;42994;51.606;9.988;2022-09-12T02:45:22;7.65;;;6.80;;
57113;SDS011;42994;51.606;9.988;2022-09-12T02:47:52;8.73;;;7.18;;
57113;SDS011;42994;51.606;9.988;2022-09-12T02:50:23;7.95;;;7.00;;
57113;SDS011;42994;51.606;9.988;2022-09-12T02:52:50;12.15;;;8.00;;
57113;SDS011;42994;51.606;9.988;2022-09-12T02:55:19;16.63;;;9.63;;
57113;SDS011;42994;51.606;9.988;2022-09-12T02:57:48;12.40;;;8.98;;
57113;SDS011;42994;51.606;9.988;2022-09-12T03:00:15;18.20;;;9.10;;
57113;SDS011;42994;51.606;9.988;2022-09-12T03:02:51;14.35;;;9.18;;
57113;SDS011;42994;51.606;9.988;2022-09-12T03:05:31;10.82;;;8.88;;
57113;SDS011;42994;51.606;9.988;2022-09-12T03:14:25;11.95;;;8.85;;
57113;SDS011;42994;51.606;9.988;2022-09-12T03:17:02;10.20;;;8.38;;
57113;SDS011;42994;51.606;9.988;2022-09-12T03:19:40;12.57;;;9.07;;
57113;SDS011;42994;51.606;9.988;2022-09-12T03:22:23;11.05;;;8.13;;
57113;SDS011;42994;51.606;9.988;2022-09-12T03:24:57;10.73;;;7.97;;
57113;SDS011;42994;51.606;9.988;2022-09-12T03:27:32;9.85;;;8.05;;
57113;SDS011;42994;51.606;9.988;2022-09-12T03:30:03;8.15;;;7.05;;
57113;SDS011;42994;51.606;9.988;2022-09-12T03:32:41;10.65;;;6.95;;
57113;SDS011;42994;51.606;9.988;2022-09-12T03:35:11;9.43;;;7.75;;
57113;SDS011;42994;51.606;9.988;2022-09-12T03:37:38;11.40;;;8.90;;
57113;SDS011;42994;51.606;9.988;2022-09-12T03:40:06;11.75;;;8.57;;
57113;SDS011;42994;51.606;9.988;2022-09-12T03:42:34;8.77;;;7.55;;
57113;SDS011;42994;51.606;9.988;2022-09-12T03:45:01;9.68;;;7.93;;
57113;SDS011;42994;51.606;9.988;2022-09-12T03:47:27;21.02;;;9.75;;
57113;SDS011;42994;51.606;9.988;2022-09-12T03:49:54;11.15;;;8.27;;
57113;SDS011;42994;51.606;9.988;2022-09-12T03:52:22;18.58;;;8.70;;
57113;SDS011;42994;51.606;9.988;2022-09-12T03:54:49;18.45;;;9.18;;
57113;SDS011;42994;51.606;9.988;2022-09-12T03:57:16;15.30;;;8.63;;
57113;SDS011;42994;51.606;9.988;2022-09-12T03:59:43;13.15;;;8.73;;
57113;SDS011;42994;51.606;9.988;2022-09-12T04:02:09;32.10;;;9.57;;
57113;SDS011;42994;51.606;9.988;2022-09-12T04:04:39;10.50;;;8.07;;
57113;SDS011;42994;51.606;9.988;2022-09-12T04:07:07;15.10;;;9.05;;
57113;SDS011;42994;51.606;9.988;2022-09-12T04:09:35;33.55;;;11.57;;
57113;SDS011;42994;51.606;9.988;2022-09-12T04:12:02;32.85;;;11.65;;
57113;SDS011;42994;51.606;9.988;2022-09-12T04:14:29;19.50;;;10.07;;
57113;SDS011;42994;51.606;9.988;2022-09-12T04:16:56;24.38;;;11.40;;
57113;SDS011;42994;51.606;9.988;2022-09-12T04:19:23;19.55;;;9.23;;
57113;SDS011;42994;51.606;9.988;2022-09-12T04:21:50;12.38;;;7.97;;
57113;SDS011;42994;51.606;9.988;2022-09-12T04:24:17;11.10;;;7.60;;
57113;SDS011;42994;51.606;9.988;2022-09-12T04:26:45;9.40;;;7.10;;
57113;SDS011;42994;51.606;9.988;2022-09-12T04:29:12;10.82;;;7.38;;
57113;SDS011;42994;51.606;9.988;2022-09-12T04:31:40;14.10;;;7.68;;
57113;SDS011;42994;51.606;9.988;2022-09-12T04:34:07;10.13;;;7.65;;
57113;SDS011;42994;51.606;9.988;2022-09-12T04:36:33;11.48;;;7.90;;
57113;SDS011;42994;51.606;9.988;2022-09-12T04:39:01;9.45;;;7.65;;
57113;SDS011;42994;51.606;9.988;2022-09-12T04:41:29;10.32;;;7.97;;
57113;SDS011;42994;51.606;9.988;2022-09-12T04:43:59;11.23;;;8.98;;
57113;SDS011;42994;51.606;9.988;2022-09-12T04:46:27;13.55;;;9.55;;
57113;SDS011;42994;51.606;9.988;2022-09-12T04:48:55;18.83;;;11.15;;
57113;SDS011;42994;51.606;9.988;2022-09-12T04:51:23;38.08;;;12.55;;
57113;SDS011;42994;51.606;9.988;2022-09-12T04:53:52;37.33;;;14.27;;
57113;SDS011;42994;51.606;9.988;2022-09-12T04:56:20;35.55;;;14.85;;
57113;SDS011;42994;51.606;9.988;2022-09-12T04:58:47;79.63;;;17.20;;
57113;SDS011;42994;51.606;9.988;2022-09-12T05:01:18;39.75;;;15.32;;
57113;SDS011;42994;51.606;9.988;2022-09-12T05:03:46;37.38;;;14.98;;
57113;SDS011;42994;51.606;9.988;2022-09-12T05:06:14;29.05;;;13.93;;
57113;SDS011;42994;51.606;9.988;2022-09-12T05:08:43;20.13;;;11.40;;
57113;SDS011;42994;51.606;9.988;2022-09-12T05:11:10;30.02;;;13.10;;
57113;SDS011;42994;51.606;9.988;2022-09-12T05:13:39;29.35;;;12.15;;
57113;SDS011;42994;51.606;9.988;2022-09-12T05:16:06;22.35;;;11.23;;
57113;SDS011;42994;51.606;9.988;2022-09-12T05:18:36;17.98;;;11.68;;
57113;SDS011;42994;51.606;9.988;2022-09-12T05:21:04;17.48;;;11.57;;
57113;SDS011;42994;51.606;9.988;2022-09-12T05:23:32;16.73;;;12.10;;
57113;SDS011;42994;51.606;9.988;2022-09-12T05:25:59;18.98;;;11.73;;
57113;SDS011;42994;51.606;9.988;2022-09-12T05:28:28;23.55;;;13.07;;
57113;SDS011;42994;51.606;9.988;2022-09-12T05:30:59;16.17;;;10.68;;
57113;SDS011;42994;51.606;9.988;2022-09-12T05:33:28;14.82;;;9.55;;
57113;SDS011;42994;51.606;9.988;2022-09-12T05:35:56;12.82;;;8.75;;
57113;SDS011;42994;51.606;9.988;2022-09-12T05:38:23;16.65;;;9.25;;
57113;SDS011;42994;51.606;9.988;2022-09-12T05:40:50;13.90;;;9.18;;
57113;SDS011;42994;51.606;9.988;2022-09-12T05:43:16;16.45;;;10.40;;
57113;SDS011;42994;51.606;9.988;2022-09-12T05:45:44;14.00;;;10.25;;
57113;SDS011;42994;51.606;9.988;2022-09-12T05:48:11;13.55;;;9.43;;
57113;SDS011;42994;51.606;9.988;2022-09-12T05:50:37;15.27;;;10.27;;
57113;SDS011;42994;51.606;9.988;2022-09-12T05:53:05;14.80;;;10.10;;
57113;SDS011;42994;51.606;9.988;2022-09-12T05:55:32;21.75;;;11.85;;
57113;SDS011;42994;51.606;9.988;2022-09-12T05:57:59;20.92;;;11.73;;
57113;SDS011;42994;51.606;9.988;2022-09-12T06:00:26;16.92;;;11.50;;
57113;SDS011;42994;51.606;9.988;2022-09-12T06:02:52;20.75;;;9.35;;
57113;SDS011;42994;51.606;9.988;2022-09-12T06:05:19;12.38;;;9.45;;
57113;SDS011;42994;51.606;9.988;2022-09-12T06:07:45;11.25;;;9.18;;
57113;SDS011;42994;51.606;9.988;2022-09-12T06:10:14;12.57;;;9.35;;
57113;SDS011;42994;51.606;9.988;2022-09-12T06:12:42;11.25;;;8.20;;
57113;SDS011;42994;51.606;9.988;2022-09-12T06:15:08;11.25;;;8.93;;
57113;SDS011;42994;51.606;9.988;2022-09-12T06:17:35;13.23;;;9.35;;
57113;SDS011;42994;51.606;9.988;2022-09-12T06:20:02;10.07;;;7.32;;
57113;SDS011;42994;51.606;9.988;2022-09-12T06:22:29;15.88;;;9.70;;
57113;SDS011;42994;51.606;9.988;2022-09-12T06:24:56;10.60;;;7.90;;
57113;SDS011;42994;51.606;9.988;2022-09-12T06:27:24;16.00;;;8.77;;
57113;SDS011;42994;51.606;9.988;2022-09-12T06:29:50;9.45;;;7.68;;
57113;SDS011;42994;51.606;9.988;2022-09-12T06:32:17;13.55;;;8.85;;
57113;SDS011;42994;51.606;9.988;2022-09-12T06:34:44;14.43;;;8.48;;
57113;SDS011;42994;51.606;9.988;2022-09-12T06:37:12;11.52;;;8.07;;
57113;SDS011;42994;51.606;9.988;2022-09-12T06:39:39;34.28;;;9.00;;
57113;SDS011;42994;51.606;9.988;2022-09-12T06:42:06;12.77;;;8.40;;
57113;SDS011;42994;51.606;9.988;2022-09-12T06:44:35;72.90;;;10.88;;
57113;SDS011;42994;51.606;9.988;2022-09-12T06:47:02;25.60;;;8.77;;
57113;SDS011;42994;51.606;9.988;2022-09-12T06:49:28;8.95;;;6.95;;
57113;SDS011;42994;51.606;9.988;2022-09-12T06:51:55;21.25;;;8.73;;
57113;SDS011;42994;51.606;9.988;2022-09-12T06:54:22;52.40;;;7.90;;
57113;SDS011;42994;51.606;9.988;2022-09-12T06:56:50;17.45;;;8.07;;
57113;SDS011;42994;51.606;9.988;2022-09-12T06:59:17;10.45;;;7.65;;
57113;SDS011;42994;51.606;9.988;2022-09-12T07:01:45;9.13;;;7.38;;
57113;SDS011;42994;51.606;9.988;2022-09-12T07:04:12;11.05;;;7.35;;
57113;SDS011;42994;51.606;9.988;2022-09-12T07:06:39;10.40;;;7.57;;
57113;SDS011;42994;51.606;9.988;2022-09-12T07:09:09;16.80;;;9.52;;
57113;SDS011;42994;51.606;9.988;2022-09-12T07:11:38;19.00;;;11.25;;
57113;SDS011;42994;51.606;9.988;2022-09-12T07:14:07;24.58;;;11.77;;
57113;SDS011;42994;51.606;9.988;2022-09-12T07:16:35;30.65;;;13.88;;
57113;SDS011;42994;51.606;9.988;2022-09-12T07:19:03;46.40;;;19.30;;
57113;SDS011;42994;51.606;9.988;2022-09-12T07:21:32;46.85;;;21.17;;
57113;SDS011;42994;51.606;9.988;2022-09-12T07:24:00;45.33;;;19.85;;
57113;SDS011;42994;51.606;9.988;2022-09-12T07:26:27;56.60;;;21.70;;
57113;SDS011;42994;51.606;9.988;2022-09-12T07:28:55;57.55;;;24.50;;
57113;SDS011;42994;51.606;9.988;2022-09-12T07:31:24;47.90;;;20.00;;
57113;SDS011;42994;51.606;9.988;2022-09-12T07:33:52;39.10;;;17.83;;
57113;SDS011;42994;51.606;9.988;2022-09-12T07:36:21;44.92;;;20.55;;
57113;SDS011;42994;51.606;9.988;2022-09-12T07:38:52;49.22;;;22.13;;
57113;SDS011;42994;51.606;9.988;2022-09-12T07:41:20;64.05;;;27.38;;
57113;SDS011;42994;51.606;9.988;2022-09-12T07:43:50;61.38;;;28.30;;
57113;SDS011;42994;51.606;9.988;2022-09-12T07:46:17;51.55;;;25.40;;
57113;SDS011;42994;51.606;9.988;2022-09-12T07:48:47;64.65;;;30.92;;
57113;SDS011;42994;51.606;9.988;2022-09-12T07:51:15;58.33;;;28.48;;
57113;SDS011;42994;51.606;9.988;2022-09-12T07:53:44;60.60;;;30.15;;
57113;SDS011;42994;51.606;9.988;2022-09-12T07:56:11;68.78;;;30.23;;
57113;SDS011;42994;51.606;9.988;2022-09-12T07:58:39;59.80;;;28.58;;
57113;SDS011;42994;51.606;9.988;2022-09-12T08:01:08;44.38;;;20.52;;
57113;SDS011;42994;51.606;9.988;2022-09-12T08:03:37;42.22;;;18.90;;
57113;SDS011;42994;51.606;9.988;2022-09-12T08:06:04;38.90;;;20.05;;
57113;SDS011;42994;51.606;9.988;2022-09-12T08:08:32;39.40;;;19.25;;
57113;SDS011;42994;51.606;9.988;2022-09-12T08:11:01;29.88;;;18.30;;
57113;SDS011;42994;51.606;9.988;2022-09-12T08:13:30;33.28;;;19.17;;
57113;SDS011;42994;51.606;9.988;2022-09-12T08:15:58;28.83;;;16.25;;
57113;SDS011;42994;51.606;9.988;2022-09-12T08:18:26;29.67;;;16.08;;
57113;SDS011;42994;51.606;9.988;2022-09-12T08:20:57;26.63;;;15.93;;
57113;SDS011;42994;51.606;9.988;2022-09-12T08:23:24;21.52;;;14.57;;
57113;SDS011;42994;51.606;9.988;2022-09-12T08:25:54;25.40;;;15.00;;
57113;SDS011;42994;51.606;9.988;2022-09-12T08:28:22;21.80;;;13.52;;
57113;SDS011;42994;51.606;9.988;2022-09-12T08:30:49;23.88;;;15.60;;
57113;SDS011;42994;51.606;9.988;2022-09-12T08:33:15;24.48;;;15.30;;
57113;SDS011;42994;51.606;9.988;2022-09-12T08:35:42;20.85;;;14.52;;
57113;SDS011;42994;51.606;9.988;2022-09-12T08:38:08;18.58;;;12.93;;
57113;SDS011;42994;51.606;9.988;2022-09-12T08:40:39;22.05;;;14.38;;
57113;SDS011;42994;51.606;9.988;2022-09-12T08:43:12;20.50;;;14.07;;
57113;SDS011;42994;51.606;9.988;2022-09-12T08:45:58;18.13;;;13.02;;
57113;SDS011;42994;51.606;9.988;2022-09-12T08:48:29;22.38;;;12.93;;
57113;SDS011;42994;51.606;9.988;2022-09-12T08:50:56;18.90;;;13.40;;
57113;SDS011;42994;51.606;9.988;2022-09-12T08:53:24;17.95;;;13.50;;
57113;SDS011;42994;51.606;9.988;2022-09-12T08:55:55;16.90;;;11.38;;
57113;SDS011;42994;51.606;9.988;2022-09-12T09:03:29;14.13;;;9.32;;
57113;SDS011;42994;51.606;9.988;2022-09-12T09:09:18;12.25;;;7.60;;
57113;SDS011;42994;51.606;9.988;2022-09-12T09:11:58;8.98;;;7.63;;
57113;SDS011;42994;51.606;9.988;2022-09-12T09:17:26;11.52;;;7.20;;
57113;SDS011;42994;51.606;9.988;2022-09-12T09:20:04;9.52;;;6.85;;
57113;SDS011;42994;51.606;9.988;2022-09-12T09:22:41;9.25;;;6.68;;
57113;SDS011;42994;51.606;9.988;2022-09-12T09:25:13;8.85;;;6.97;;
57113;SDS011;42994;51.606;9.988;2022-09-12T09:27:45;8.07;;;6.50;;
57113;SDS011;42994;51.606;9.988;2022-09-12T09:30:18;11.55;;;7.05;;
57113;SDS011;42994;51.606;9.988;2022-09-12T09:32:48;8.57;;;7.15;;
57113;SDS011;42994;51.606;9.988;2022-09-12T09:35:20;6.97;;;5.78;;
57113;SDS011;42994;51.606;9.988;2022-09-12T09:37:58;8.15;;;6.80;;
57113;SDS011;42994;51.606;9.988;2022-09-12T09:40:29;6.72;;;6.03;;
57113;SDS011;42994;51.606;9.988;2022-09-12T09:43:11;9.18;;;6.82;;
57113;SDS011;42994;51.606;9.988;2022-09-12T09:45:48;11.30;;;6.95;;
57113;SDS011;42994;51.606;9.988;2022-09-12T09:48:16;12.63;;;6.70;;
57113;SDS011;42994;51.606;9.988;2022-09-12T09:50:45;6.82;;;6.15;;
57113;SDS011;42994;51.606;9.988;2022-09-12T09:53:18;9.93;;;6.85;;
57113;SDS011;42994;51.606;9.988;2022-09-12T09:55:52;12.02;;;6.50;;
57113;SDS011;42994;51.606;9.988;2022-09-12T09:58:27;9.20;;;6.03;;
57113;SDS011;42994;51.606;9.988;2022-09-12T10:00:58;6.65;;;5.90;;
57113;SDS011;42994;51.606;9.988;2022-09-12T10:03:32;7.63;;;6.32;;
57113;SDS011;42994;51.606;9.988;2022-09-12T10:06:05;7.03;;;6.30;;
57113;SDS011;42994;51.606;9.988;2022-09-12T10:08:34;7.50;;;6.03;;
57113;SDS011;42994;51.606;9.988;2022-09-12T10:11:03;6.63;;;6.00;;
57113;SDS011;42994;51.606;9.988;2022-09-12T10:13:33;6.55;;;5.43;;
57113;SDS011;42994;51.606;9.988;2022-09-12T10:16:15;7.17;;;6.33;;
57113;SDS011;42994;51.606;9.988;2022-09-12T10:21:12;6.15;;;4.97;;
57113;SDS011;42994;51.606;9.988;2022-09-12T10:23:46;5.22;;;4.60;;
57113;SDS011;42994;51.606;9.988;2022-09-12T10:26:16;7.40;;;5.50;;
57113;SDS011;42994;51.606;9.988;2022-09-12T10:28:46;8.68;;;5.68;;
57113;SDS011;42994;51.606;9.988;2022-09-12T10:31:22;5.57;;;4.85;;
57113;SDS011;42994;51.606;9.988;2022-09-12T10:33:53;6.63;;;4.72;;
57113;SDS011;42994;51.606;9.988;2022-09-12T10:36:22;4.93;;;4.30;;
57113;SDS011;42994;51.606;9.988;2022-09-12T10:38:50;6.03;;;3.80;;
57113;SDS011;42994;51.606;9.988;2022-09-12T10:41:19;5.40;;;3.85;;
57113;SDS011;42994;51.606;9.988;2022-09-12T10:43:47;4.70;;;4.18;;
57113;SDS011;42994;51.606;9.988;2022-09-12T10:46:27;5.57;;;4.03;;
57113;SDS011;42994;51.606;9.988;2022-09-12T10:51:56;5.90;;;4.68;;
57113;SDS011;42994;51.606;9.988;2022-09-12T10:54:40;5.80;;;5.05;;
57113;SDS011;42994;51.606;9.988;2022-09-12T10:57:15;5.45;;;4.35;;
57113;SDS011;42994;51.606;9.988;2022-09-12T10:59:57;5.32;;;4.78;;
57113;SDS011;42994;51.606;9.988;2022-09-12T11:02:36;4.97;;;4.25;;
57113;SDS011;42994;51.606;9.988;2022-09-12T11:05:13;4.55;;;4.10;;
57113;SDS011;42994;51.606;9.988;2022-09-12T11:08:01;6.28;;;4.18;;
57113;SDS011;42994;51.606;9.988;2022-09-12T11:10:38;4.90;;;4.47;;
57113;SDS011;42994;51.606;9.988;2022-09-12T11:13:18;5.05;;;4.28;;
57113;SDS011;42994;51.606;9.988;2022-09-12T11:16:00;6.70;;;4.20;;
57113;SDS011;42994;51.606;9.988;2022-09-12T11:18:44;4.95;;;4.18;;
57113;SDS011;42994;51.606;9.988;2022-09-12T11:21:24;6.20;;;4.10;;
57113;SDS011;42994;51.606;9.988;2022-09-12T11:24:10;6.38;;;4.10;;
57113;SDS011;42994;51.606;9.988;2022-09-12T11:26:52;3.95;;;3.58;;
57113;SDS011;42994;51.606;9.988;2022-09-12T11:29:34;4.78;;;3.67;;
57113;SDS011;42994;51.606;9.988;2022-09-12T11:35:01;4.55;;;4.10;;
57113;SDS011;42994;51.606;9.988;2022-09-12T11:37:42;7.10;;;4.32;;
57113;SDS011;42994;51.606;9.988;2022-09-12T11:40:22;4.82;;;4.00;;
57113;SDS011;42994;51.606;9.988;2022-09-12T11:42:55;5.30;;;4.15;;
57113;SDS011;42994;51.606;9.988;2022-09-12T11:45:27;6.28;;;4.18;;
57113;SDS011;42994;51.606;9.988;2022-09-12T11:48:00;4.05;;;3.40;;
57113;SDS011;42994;51.606;9.988;2022-09-12T11:50:34;4.60;;;3.60;;
57113;SDS011;42994;51.606;9.988;2022-09-12T11:53:02;4.40;;;3.65;;
57113;SDS011;42994;51.606;9.988;2022-09-12T11:55:38;3.67;;;3.35;;
57113;SDS011;42994;51.606;9.988;2022-09-12T11:58:14;4.45;;;3.13;;
57113;SDS011;42994;51.606;9.988;2022-09-12T12:00:46;3.40;;;2.78;;
57113;SDS011;42994;51.606;9.988;2022-09-12T12:03:16;3.33;;;3.03;;
57113;SDS011;42994;51.606;9.988;2022-09-12T12:05:53;9.93;;;3.10;;
57113;SDS011;42994;51.606;9.988;2022-09-12T12:08:23;4.88;;;2.97;;
57113;SDS011;42994;51.606;9.988;2022-09-12T12:10:52;3.15;;;2.70;;
57113;SDS011;42994;51.606;9.988;2022-09-12T12:13:24;3.30;;;2.75;;
57113;SDS011;42994;51.606;9.988;2022-09-12T12:15:54;4.45;;;2.47;;
57113;SDS011;42994;51.606;9.988;2022-09-12T12:18:23;5.22;;;4.28;;
57113;SDS011;42994;51.606;9.988;2022-09-12T12:20:53;3.47;;;2.50;;
57113;SDS011;42994;51.606;9.988;2022-09-12T12:23:22;2.25;;;2.03;;
57113;SDS011;42994;51.606;9.988;2022-09-12T12:25:55;3.03;;;2.70;;
57113;SDS011;42994;51.606;9.988;2022-09-12T12:31:21;3.03;;;2.40;;
57113;SDS011;42994;51.606;9.988;2022-09-12T12:33:54;2.33;;;2.13;;
57113;SDS011;42994;51.606;9.988;2022-09-12T12:36:34;2.55;;;2.35;;
57113;SDS011;42994;51.606;9.988;2022-09-12T12:51:57;4.60;;;2.00;;
57113;SDS011;42994;51.606;9.988;2022-09-12T12:54:31;2.10;;;1.90;;
57113;SDS011;42994;51.606;9.988;2022-09-12T12:57:04;4.05;;;2.05;;
57113;SDS011;42994;51.606;9.988;2022-09-12T12:59:46;3.47;;;2.03;;
57113;SDS011;42994;51.606;9.988;2022-09-12T13:02:20;3.13;;;2.03;;
57113;SDS011;42994;51.606;9.988;2022-09-12T13:04:50;1.80;;;1.70;;
57113;SDS011;42994;51.606;9.988;2022-09-12T13:07:22;2.35;;;2.10;;
57113;SDS011;42994;51.606;9.988;2022-09-12T13:09:52;2.10;;;1.90;;
57113;SDS011;42994;51.606;9.988;2022-09-12T13:12:20;2.38;;;1.92;;
57113;SDS011;42994;51.606;9.988;2022-09-12T13:14:50;3.65;;;1.77;;
57113;SDS011;42994;51.606;9.988;2022-09-12T13:17:30;3.80;;;1.35;;
57113;SDS011;42994;51.606;9.988;2022-09-12T13:20:11;1.92;;;1.58;;
57113;SDS011;42994;51.606;9.988;2022-09-12T13:22:45;6.53;;;1.83;;
57113;SDS011;42994;51.606;9.988;2022-09-12T13:25:17;1.92;;;1.73;;
57113;SDS011;42994;51.606;9.988;2022-09-12T13:30:42;2.20;;;1.50;;
57113;SDS011;42994;51.606;9.988;2022-09-12T13:33:18;2.28;;;1.42;;
57113;SDS011;42994;51.606;9.988;2022-09-12T13:38:52;2.00;;;1.45;;
57113;SDS011;42994;51.606;9.988;2022-09-12T13:41:34;4.28;;;1.35;;
57113;SDS011;42994;51.606;9.988;2022-09-12T13:44:13;2.55;;;1.40;;
57113;SDS011;42994;51.606;9.988;2022-09-12T13:46:44;1.70;;;1.60;;
57113;SDS011;42994;51.606;9.988;2022-09-12T13:49:15;1.25;;;1.15;;
57113;SDS011;42994;51.606;9.988;2022-09-12T13:51:50;3.00;;;1.50;;
57113;SDS011;42994;51.606;9.988;2022-09-12T13:54:26;2.70;;;1.13;;
57113;SDS011;42994;51.606;9.988;2022-09-12T13:56:53;2.28;;;1.00;;
57113;SDS011;42994;51.606;9.988;2022-09-12T13:59:21;1.52;;;1.40;;
57113;SDS011;42994;51.606;9.988;2022-09-12T14:01:47;1.35;;;0.90;;
57113;SDS011;42994;51.606;9.988;2022-09-12T14:04:15;1.35;;;0.90;;
57113;SDS011;42994;51.606;9.988;2022-09-12T14:07:06;0.88;;;0.88;;
57113;SDS011;42994;51.606;9.988;2022-09-12T14:09:38;1.02;;;1.00;;
57113;SDS011;42994;51.606;9.988;2022-09-12T14:12:11;1.20;;;1.10;;
57113;SDS011;42994;51.606;9.988;2022-09-12T14:14:42;1.05;;;1.00;;
57113;SDS011;42994;51.606;9.988;2022-09-12T14:17:15;0.80;;;0.80;;
57113;SDS011;42994;51.606;9.988;2022-09-12T14:19:42;1.50;;;1.00;;
57113;SDS011;42994;51.606;9.988;2022-09-12T14:22:10;0.95;;;0.95;;
57113;SDS011;42994;51.606;9.988;2022-09-12T14:27:16;1.02;;;0.80;;
57113;SDS011;42994;51.606;9.988;2022-09-12T14:29:44;0.90;;;0.90;;
57113;SDS011;42994;51.606;9.988;2022-09-12T14:32:17;0.93;;;0.90;;
57113;SDS011;42994;51.606;9.988;2022-09-12T14:35:04;0.88;;;0.82;;
57113;SDS011;42994;51.606;9.988;2022-09-12T14:37:46;1.40;;;0.90;;
57113;SDS011;42994;51.606;9.988;2022-09-12T14:40:17;1.25;;;1.02;;
57113;SDS011;42994;51.606;9.988;2022-09-12T14:42:45;1.92;;;1.05;;
57113;SDS011;42994;51.606;9.988;2022-09-12T14:45:15;0.80;;;0.80;;
57113;SDS011;42994;51.606;9.988;2022-09-12T14:47:46;1.60;;;1.10;;
57113;SDS011;42994;51.606;9.988;2022-09-12T14:50:16;1.52;;;1.42;;
57113;SDS011;42994;51.606;9.988;2022-09-12T14:52:44;5.45;;;1.23;;
57113;SDS011;42994;51.606;9.988;2022-09-12T14:55:21;1.15;;;1.05;;
57113;SDS011;42994;51.606;9.988;2022-09-12T14:58:06;2.78;;;1.23;;
57113;SDS011;42994;51.606;9.988;2022-09-12T15:00:50;2.80;;;1.08;;
57113;SDS011;42994;51.606;9.988;2022-09-12T15:03:22;0.82;;;0.82;;
57113;SDS011;42994;51.606;9.988;2022-09-12T15:05:51;1.92;;;1.17;;
57113;SDS011;42994;51.606;9.988;2022-09-12T15:08:17;2.88;;;0.93;;
57113;SDS011;42994;51.606;9.988;2022-09-12T15:10:46;2.67;;;1.17;;
57113;SDS011;42994;51.606;9.988;2022-09-12T15:13:14;1.02;;;0.93;;
57113;SDS011;42994;51.606;9.988;2022-09-12T15:15:44;2.17;;;1.13;;
57113;SDS011;42994;51.606;9.988;2022-09-12T15:18:12;2.92;;;1.30;;
57113;SDS011;42994;51.606;9.988;2022-09-12T15:20:40;0.95;;;0.90;;
57113;SDS011;42994;51.606;9.988;2022-09-12T15:23:10;4.32;;;1.48;;
57113;SDS011;42994;51.606;9.988;2022-09-12T15:25:40;1.77;;;1.25;;
57113;SDS011;42994;51.606;9.988;2022-09-12T15:28:12;1.55;;;1.45;;
57113;SDS011;42994;51.606;9.988;2022-09-12T15:30:42;1.63;;;1.30;;
57113;SDS011;42994;51.606;9.988;2022-09-12T15:33:09;1.52;;;1.10;;
57113;SDS011;42994;51.606;9.988;2022-09-12T15:35:36;1.40;;;1.20;;
57113;SDS011;42994;51.606;9.988;2022-09-12T15:38:03;1.48;;;1.15;;
57113;SDS011;42994;51.606;9.988;2022-09-12T15:40:30;2.63;;;1.08;;
57113;SDS011;42994;51.606;9.988;2022-09-12T15:42:56;2.88;;;1.20;;
57113;SDS011;42994;51.606;9.988;2022-09-12T15:45:25;2.53;;;1.10;;
57113;SDS011;42994;51.606;9.988;2022-09-12T15:47:54;1.67;;;1.05;;
57113;SDS011;42994;51.606;9.988;2022-09-12T15:50:22;1.63;;;1.20;;
57113;SDS011;42994;51.606;9.988;2022-09-12T15:52:48;1.35;;;1.25;;
57113;SDS011;42994;51.606;9.988;2022-09-12T15:55:15;1.83;;;1.13;;